createdAt,value
2022-10-01T00:02:12.535Z,96056.44
2022-10-01T00:04:40.951Z,96050.19
2022-10-01T00:07:15.043Z,96057.16
2022-10-01T00:09:43.418Z,96059.59
2022-10-01T00:12:15.802Z,96060.44
2022-10-01T00:14:45.127Z,96070.84
2022-10-01T00:17:13.713Z,96071.31
2022-10-01T00:19:42.062Z,96070.84
2022-10-01T00:22:11.758Z,96078.16
2022-10-01T00:24:40.792Z,96081.81
2022-10-01T00:27:10.897Z,96082.09
2022-10-01T00:29:39.606Z,96090.53
2022-10-01T00:32:08.368Z,96094.03
2022-10-01T00:34:36.723Z,96092.34
2022-10-01T00:37:05.007Z,96094.19
2022-10-01T00:39:34.721Z,96087.06
2022-10-01T00:42:03.613Z,96089.34
2022-10-01T00:44:34.724Z,96083.84
2022-10-01T00:47:10.580Z,96088.16
2022-10-01T00:49:40.955Z,96087.78
2022-10-01T00:52:14.716Z,96089.25
2022-10-01T00:54:47.810Z,96088.22
2022-10-01T00:57:17.963Z,96089.88
2022-10-01T00:59:47.632Z,96091.50
2022-10-01T01:02:16.028Z,96098.66
2022-10-01T01:04:44.805Z,96095.00
2022-10-01T01:07:13.844Z,96096.47
2022-10-01T01:09:46.908Z,96100.56
2022-10-01T01:12:27.426Z,96099.41
2022-10-01T01:15:08.571Z,96090.25
2022-10-01T01:17:54.526Z,96090.06
2022-10-01T01:20:51.637Z,96079.28
2022-10-01T01:23:33.148Z,96084.75
2022-10-01T01:26:08.450Z,96079.28
2022-10-01T01:28:41.851Z,96077.44
2022-10-01T01:31:13.674Z,96072.13
2022-10-01T01:33:47.018Z,96068.03
2022-10-01T01:36:19.766Z,96072.47
2022-10-01T01:38:54.723Z,96073.13
2022-10-01T01:41:25.859Z,96067.63
2022-10-01T01:44:02.238Z,96066.00
2022-10-01T01:46:34.579Z,96062.25
2022-10-01T01:49:05.314Z,96070.56
2022-10-01T01:51:41.667Z,96064.19
2022-10-01T01:54:10.381Z,96062.56
2022-10-01T01:56:38.942Z,96065.84
2022-10-01T01:59:09.146Z,96066.66
2022-10-01T02:01:40.262Z,96057.50
2022-10-01T02:04:14.965Z,96050.38
2022-10-01T02:07:02.410Z,96053.47
2022-10-01T02:09:36.165Z,96047.97
2022-10-01T02:12:14.218Z,96051.25
2022-10-01T02:14:50.985Z,96045.16
2022-10-01T02:17:29.407Z,96050.63
2022-10-01T02:20:03.130Z,96048.38
2022-10-01T02:22:41.478Z,96044.69
2022-10-01T02:25:12.348Z,96045.31
2022-10-01T02:27:45.651Z,96039.84
2022-10-01T02:30:16.322Z,96038.00
2022-10-01T02:32:48.520Z,96043.13
2022-10-01T02:35:19.814Z,96040.94
2022-10-01T02:37:51.845Z,96045.22
2022-10-01T02:40:26.315Z,96043.59
2022-10-01T02:43:00.637Z,96046.06
2022-10-01T02:45:35.559Z,96038.09
2022-10-01T02:48:07.553Z,96039.91
2022-10-01T02:50:41.410Z,96041.56
2022-10-01T02:53:17.695Z,96039.72
2022-10-01T02:55:47.521Z,96034.25
2022-10-01T02:58:14.978Z,96026.91
2022-10-01T03:00:44.663Z,96037.53
2022-10-01T03:03:13.054Z,96044.03
2022-10-01T03:05:41.634Z,96042.38
2022-10-01T03:08:10.009Z,96033.59
2022-10-01T03:10:38.365Z,96032.78
2022-10-01T03:13:07.434Z,96039.09
2022-10-01T03:15:35.764Z,96032.16
2022-10-01T03:18:05.534Z,96029.69
2022-10-01T03:20:33.892Z,96024.38
2022-10-01T03:23:02.203Z,96030.31
2022-10-01T03:25:30.572Z,96032.16
2022-10-01T03:27:58.987Z,96024.38
2022-10-01T03:30:27.759Z,96023.56
2022-10-01T03:32:56.032Z,96026.84
2022-10-01T03:35:26.347Z,96026.66
2022-10-01T03:37:54.618Z,96029.97
2022-10-01T03:40:22.937Z,96027.31
2022-10-01T03:42:51.220Z,96027.03
2022-10-01T03:45:19.796Z,96030.81
2022-10-01T03:47:52.979Z,96031.28
2022-10-01T03:50:21.942Z,96030.09
2022-10-01T03:52:51.756Z,96031.81
2022-10-01T03:55:20.327Z,96036.13
2022-10-01T03:57:48.894Z,96031.63
2022-10-01T04:00:18.717Z,96033.47
2022-10-01T04:02:47.341Z,96024.69
2022-10-01T04:05:15.801Z,96022.69
2022-10-01T04:07:44.586Z,96023.69
2022-10-01T04:10:14.820Z,96019.41
2022-10-01T04:12:43.152Z,96024.59
2022-10-01T04:15:11.945Z,96021.50
2022-10-01T04:17:43.885Z,96037.56
2022-10-01T04:20:14.714Z,96025.34
2022-10-01T04:22:44.563Z,96029.38
2022-10-01T04:25:14.863Z,96030.19
2022-10-01T04:27:55.223Z,96036.28
2022-10-01T04:30:24.210Z,96039.41
2022-10-01T04:32:52.581Z,96032.25
2022-10-01T04:35:21.622Z,96033.94
2022-10-01T04:37:56.210Z,96027.88
2022-10-01T04:40:26.816Z,96025.50
2022-10-01T04:42:55.106Z,96031.06
2022-10-01T04:45:23.426Z,96033.34
2022-10-01T04:47:53.164Z,96030.69
2022-10-01T04:50:24.537Z,96034.59
2022-10-01T04:52:53.019Z,96040.22
2022-10-01T04:55:22.749Z,96044.72
2022-10-01T04:57:52.474Z,96048.41
2022-10-01T05:00:26.535Z,96046.25
2022-10-01T05:02:55.507Z,96045.91
2022-10-01T05:05:27.336Z,96054.50
2022-10-01T05:07:55.863Z,96060.81
2022-10-01T05:10:25.012Z,96059.44
2022-10-01T05:12:54.744Z,96061.22
2022-10-01T05:15:23.160Z,96063.31
2022-10-01T05:17:51.435Z,96071.44
2022-10-01T05:20:21.679Z,96063.47
2022-10-01T05:22:50.426Z,96076.72
2022-10-01T05:25:19.825Z,96073.25
2022-10-01T05:27:48.414Z,96075.09
2022-10-01T05:30:24.194Z,96065.31
2022-10-01T05:32:57.091Z,96070.06
2022-10-01T05:35:25.549Z,96053.84
2022-10-01T05:37:55.207Z,96056.44
2022-10-01T05:40:27.542Z,96054.38
2022-10-01T05:42:57.066Z,96056.31
2022-10-01T05:45:31.346Z,96057.78
2022-10-01T05:48:01.485Z,96057.13
2022-10-01T05:50:31.675Z,96061.41
2022-10-01T05:53:01.072Z,96057.47
2022-10-01T05:55:34.331Z,96057.69
2022-10-01T05:58:04.074Z,96053.19
2022-10-01T06:00:34.599Z,96053.19
2022-10-01T06:03:06.131Z,96056.78
2022-10-01T06:05:36.885Z,96048.13
2022-10-01T06:08:07.117Z,96043.22
2022-10-01T06:10:36.840Z,96043.41
2022-10-01T06:13:06.419Z,96053.56
2022-10-01T06:15:38.467Z,96055.28
2022-10-01T06:18:07.886Z,96060.88
2022-10-01T06:20:36.859Z,96065.38
2022-10-01T06:23:07.417Z,96069.66
2022-10-01T06:25:37.167Z,96067.63
2022-10-01T06:28:06.923Z,96066.09
2022-10-01T06:30:38.447Z,96067.19
2022-10-01T06:33:09.423Z,96070.94
2022-10-01T06:35:41.854Z,96072.84
2022-10-01T06:38:11.128Z,96077.09
2022-10-01T06:40:39.559Z,96079.63
2022-10-01T06:43:08.623Z,96077.72
2022-10-01T06:45:40.585Z,96070.47
2022-10-01T06:48:14.713Z,96072.41
2022-10-01T06:50:44.254Z,96067.16
2022-10-01T06:53:13.540Z,96059.66
2022-10-01T06:55:42.225Z,96070.50
2022-10-01T06:58:14.505Z,96073.63
2022-10-01T07:00:44.806Z,96081.41
2022-10-01T07:03:16.186Z,96079.78
2022-10-01T07:05:44.948Z,96072.81
2022-10-01T07:08:14.008Z,96068.75
2022-10-01T07:10:44.109Z,96071.28
2022-10-01T07:13:14.380Z,96067.91
2022-10-01T07:15:44.647Z,96068.78
2022-10-01T07:18:13.828Z,96070.03
2022-10-01T07:20:42.647Z,96071.56
2022-10-01T07:23:13.413Z,96074.09
2022-10-01T07:25:42.686Z,96077.81
2022-10-01T07:28:16.621Z,96073.59
2022-10-01T07:30:48.730Z,96076.31
2022-10-01T07:33:19.548Z,96075.09
2022-10-01T07:35:48.295Z,96066.13
2022-10-01T07:38:19.077Z,96065.38
2022-10-01T07:40:52.646Z,96062.13
2022-10-01T07:43:21.021Z,96064.22
2022-10-01T07:45:52.447Z,96064.47
2022-10-01T07:48:20.879Z,96068.16
2022-10-01T07:50:49.610Z,96061.81
2022-10-01T07:53:18.382Z,96061.22
2022-10-01T07:55:47.073Z,96048.81
2022-10-01T07:58:15.433Z,96054.81
2022-10-01T08:00:44.934Z,96053.84
2022-10-01T08:03:14.827Z,96048.56
2022-10-01T08:05:43.571Z,96044.31
2022-10-01T08:08:11.917Z,96044.31
2022-10-01T08:10:41.281Z,96034.97
2022-10-01T08:13:15.285Z,96029.69
2022-10-01T08:15:44.568Z,96032.81
2022-10-01T08:18:15.124Z,96032.63
2022-10-01T08:20:43.409Z,96032.88
2022-10-01T08:23:14.973Z,96026.13
2022-10-01T08:25:44.686Z,96025.72
2022-10-01T08:28:13.411Z,96026.31
2022-10-01T08:30:43.323Z,96013.63
2022-10-01T08:33:15.211Z,96022.28
2022-10-01T08:35:44.584Z,96016.94
2022-10-01T08:38:14.220Z,96004.25
2022-10-01T08:40:47.274Z,96006.69
2022-10-01T08:43:29.875Z,96005.28
2022-10-01T08:46:01.883Z,95999.56
2022-10-01T08:48:40.960Z,96011.00
2022-10-01T08:51:12.839Z,96007.16
2022-10-01T08:53:46.807Z,96005.34
2022-10-01T08:56:23.427Z,96006.38
2022-10-01T08:58:57.997Z,96000.22
2022-10-01T09:01:27.363Z,96003.13
2022-10-01T09:03:57.259Z,96010.47
2022-10-01T09:06:33.118Z,96009.09
2022-10-01T09:09:27.443Z,95995.34
2022-10-01T09:12:10.884Z,95998.63
2022-10-01T09:14:55.000Z,95999.22
2022-10-01T09:17:33.246Z,95996.16
2022-10-01T09:20:15.775Z,95994.13
2022-10-01T09:22:51.327Z,95991.66
2022-10-01T09:25:23.752Z,95989.00
2022-10-01T09:27:54.113Z,95982.03
2022-10-01T09:30:26.194Z,95993.31
2022-10-01T09:32:57.656Z,95980.59
2022-10-01T09:35:38.675Z,95978.56
2022-10-01T09:38:14.645Z,95976.50
2022-10-01T09:40:51.015Z,95978.13
2022-10-01T09:43:19.984Z,95973.41
2022-10-01T09:45:48.466Z,95973.63
2022-10-01T09:48:25.346Z,95965.63
2022-10-01T09:50:59.038Z,95965.41
2022-10-01T09:53:35.052Z,95965.22
2022-10-01T09:56:11.468Z,95955.56
2022-10-01T09:58:44.047Z,95961.09
2022-10-01T10:01:21.773Z,95966.44
2022-10-01T10:03:58.566Z,95969.50
2022-10-01T10:06:30.521Z,95968.06
2022-10-01T10:09:02.417Z,95981.00
2022-10-01T10:11:33.115Z,95990.84
2022-10-01T10:14:03.784Z,95996.78
2022-10-01T10:16:35.561Z,96005.38
2022-10-01T10:19:10.707Z,96003.13
2022-10-01T10:21:52.058Z,96004.78
2022-10-01T10:24:26.465Z,96001.50
2022-10-01T10:26:58.053Z,95991.66
2022-10-01T10:29:28.353Z,95980.81
2022-10-01T10:31:56.789Z,95964.19
2022-10-01T10:34:33.613Z,95957.03
2022-10-01T10:37:06.862Z,95938.78
2022-10-01T10:39:38.584Z,95925.88
2022-10-01T10:42:08.394Z,95929.75
2022-10-01T10:44:40.032Z,95934.88
2022-10-01T10:47:11.871Z,95934.88
2022-10-01T10:49:45.507Z,95934.03
2022-10-01T10:52:25.462Z,95927.28
2022-10-01T10:54:54.266Z,95937.13
2022-10-01T10:57:27.832Z,95938.16
2022-10-01T10:59:57.826Z,95952.31
2022-10-01T11:02:30.062Z,95944.53
2022-10-01T11:05:01.431Z,95951.47
2022-10-01T11:07:31.833Z,95946.13
2022-10-01T11:10:15.807Z,95954.13
2022-10-01T11:12:56.748Z,95948.19
2022-10-01T11:15:40.294Z,95953.97
2022-10-01T11:18:30.702Z,95954.34
2022-10-01T11:21:23.161Z,95956.41
2022-10-01T11:24:08.997Z,95954.13
2022-10-01T11:26:50.539Z,95949.25
2022-10-01T11:29:35.566Z,95952.31
2022-10-01T11:32:11.966Z,95936.53
2022-10-01T11:34:55.499Z,95937.75
2022-10-01T11:37:39.509Z,95932.63
2022-10-01T11:40:17.000Z,95935.53
2022-10-01T11:42:47.626Z,95933.88
2022-10-01T11:45:21.424Z,95939.41
2022-10-01T11:47:54.820Z,95956.63
2022-10-01T11:50:26.284Z,95961.34
2022-10-01T11:53:00.010Z,95957.88
2022-10-01T11:55:53.488Z,95949.66
2022-10-01T11:58:48.044Z,95959.28
2022-10-01T12:01:23.197Z,95979.78
2022-10-01T12:04:03.374Z,95992.69
2022-10-01T12:06:37.044Z,95996.34
2022-10-01T12:09:15.292Z,96002.72
2022-10-01T12:11:50.789Z,96007.81
2022-10-01T12:14:24.179Z,96025.00
2022-10-01T12:16:57.412Z,96021.94
2022-10-01T12:19:30.425Z,96031.75
2022-10-01T12:22:03.365Z,96038.69
2022-10-01T12:24:36.681Z,96021.88
2022-10-01T12:27:26.322Z,96023.50
2022-10-01T12:30:03.172Z,96012.88
2022-10-01T12:32:42.613Z,96018.63
2022-10-01T12:35:22.107Z,96004.88
2022-10-01T12:38:06.597Z,96021.03
2022-10-01T12:40:41.547Z,95994.44
2022-10-01T12:43:40.986Z,96029.84
2022-10-01T12:46:21.792Z,96033.69
2022-10-01T12:48:59.652Z,96018.72
2022-10-01T12:51:38.847Z,96027.50
2022-10-01T12:54:22.173Z,96008.88
2022-10-01T12:56:58.462Z,96034.44
2022-10-01T12:59:52.710Z,96008.25
2022-10-01T13:02:41.884Z,96032.81
2022-10-01T13:05:27.794Z,96038.94
2022-10-01T13:08:08.908Z,96040.75
2022-10-01T13:10:49.693Z,96033.38
2022-10-01T13:13:22.593Z,96040.38
2022-10-01T13:15:58.368Z,96039.31
2022-10-01T13:18:36.491Z,96045.63
2022-10-01T13:21:10.243Z,96045.44
2022-10-01T13:23:44.944Z,96045.44
2022-10-01T13:26:19.597Z,96042.97
2022-10-01T13:29:08.302Z,96042.34
2022-10-01T13:31:41.441Z,96044.41
2022-10-01T13:34:36.749Z,96043.78
2022-10-01T13:37:16.692Z,96036.41
2022-10-01T13:39:46.011Z,96028.88
2022-10-01T13:42:22.943Z,96035.66
2022-10-01T13:44:56.466Z,96049.34
2022-10-01T13:47:27.886Z,96063.81
2022-10-01T13:50:00.329Z,96055.22
2022-10-01T13:52:28.811Z,96061.97
2022-10-01T13:54:58.533Z,96065.06
2022-10-01T13:57:34.651Z,96060.34
2022-10-01T14:00:21.238Z,96053.00
2022-10-01T14:03:02.924Z,96060.78
2022-10-01T14:05:37.269Z,96054.03
2022-10-01T14:08:15.641Z,96063.25
2022-10-01T14:11:07.039Z,96070.22
2022-10-01T14:14:00.395Z,96066.72
2022-10-01T14:16:29.948Z,96051.56
2022-10-01T14:18:59.713Z,96057.31
2022-10-01T14:21:51.094Z,96073.72
2022-10-01T14:24:31.724Z,96060.59
2022-10-01T14:27:07.193Z,96053.03
2022-10-01T14:29:45.504Z,96055.72
2022-10-01T14:32:26.067Z,96046.28
2022-10-01T14:35:07.468Z,96039.31
2022-10-01T14:37:39.786Z,96023.97
2022-10-01T14:40:19.099Z,96008.78
2022-10-01T14:42:58.442Z,95984.19
2022-10-01T14:45:26.906Z,96006.47
2022-10-01T14:48:02.615Z,96008.44
2022-10-01T14:50:35.951Z,96003.53
2022-10-01T14:53:05.082Z,95998.41
2022-10-01T14:55:36.206Z,96016.19
2022-10-01T14:58:05.901Z,96008.22
2022-10-01T15:00:35.021Z,96009.41
2022-10-01T15:03:12.704Z,96002.28
2022-10-01T15:05:44.006Z,96006.97
2022-10-01T15:08:14.934Z,96006.97
2022-10-01T15:10:48.573Z,96018.63
2022-10-01T15:13:24.675Z,96020.66
2022-10-01T15:15:54.319Z,96045.81
2022-10-01T15:18:24.539Z,96039.50
2022-10-01T15:20:57.490Z,96033.34
2022-10-01T15:23:29.147Z,96027.84
2022-10-01T15:26:04.095Z,96019.84
2022-10-01T15:28:34.635Z,96032.97
2022-10-01T15:31:05.923Z,96035.63
2022-10-01T15:33:36.288Z,96037.91
2022-10-01T15:36:09.289Z,96029.72
2022-10-01T15:38:38.031Z,96043.66
2022-10-01T15:41:30.483Z,96044.28
2022-10-01T15:43:58.499Z,96046.94
2022-10-01T15:46:32.827Z,96037.94
2022-10-01T15:49:18.473Z,96034.47
2022-10-01T15:52:18.075Z,96042.44
2022-10-01T15:54:47.435Z,96044.28
2022-10-01T15:57:20.983Z,96050.59
2022-10-01T15:59:51.343Z,96046.31
2022-10-01T16:02:24.477Z,96051.41
2022-10-01T16:04:56.036Z,96058.38
2022-10-01T16:07:29.891Z,96069.00
2022-10-01T16:09:59.568Z,96064.69
2022-10-01T16:12:29.743Z,96076.19
2022-10-01T16:14:59.606Z,96074.72
2022-10-01T16:17:32.785Z,96078.22
2022-10-01T16:20:23.241Z,96076.56
2022-10-01T16:22:53.015Z,96088.19
2022-10-01T16:25:33.641Z,96086.94
2022-10-01T16:28:04.559Z,96087.34
2022-10-01T16:30:34.295Z,96085.25
2022-10-01T16:33:06.080Z,96089.75
2022-10-01T16:35:35.930Z,96097.91
2022-10-01T16:38:08.382Z,96098.94
2022-10-01T16:40:40.192Z,96097.09
2022-10-01T16:43:11.704Z,96099.13
2022-10-01T16:45:42.785Z,96096.22
2022-10-01T16:48:15.703Z,96088.84
2022-10-01T16:50:46.065Z,96099.84
2022-10-01T16:53:18.191Z,96102.06
2022-10-01T16:55:48.117Z,96103.88
2022-10-01T16:58:16.845Z,96119.84
2022-10-01T17:00:45.227Z,96128.00
2022-10-01T17:03:17.323Z,96121.03
2022-10-01T17:05:46.033Z,96125.50
2022-10-01T17:08:17.110Z,96123.03
2022-10-01T17:10:48.134Z,96128.34
2022-10-01T17:13:17.058Z,96132.63
2022-10-01T17:15:47.438Z,96147.94
2022-10-01T17:18:15.867Z,96145.28
2022-10-01T17:20:44.959Z,96150.81
2022-10-01T17:23:16.239Z,96143.03
2022-10-01T17:25:45.210Z,96159.78
2022-10-01T17:28:16.034Z,96147.31
2022-10-01T17:30:46.494Z,96156.13
2022-10-01T17:33:16.939Z,96150.59
2022-10-01T17:35:47.206Z,96149.78
2022-10-01T17:38:17.310Z,96159.59
2022-10-01T17:40:46.127Z,96159.59
2022-10-01T17:43:16.451Z,96158.78
2022-10-01T17:45:47.459Z,96157.75
2022-10-01T17:48:18.896Z,96161.06
2022-10-01T17:50:58.634Z,96166.38
2022-10-01T17:53:34.894Z,96171.88
2022-10-01T17:56:08.249Z,96171.22
2022-10-01T17:58:38.029Z,96181.03
2022-10-01T18:01:10.167Z,96171.22
2022-10-01T18:03:39.181Z,96181.03
2022-10-01T18:06:08.411Z,96177.56
2022-10-01T18:08:54.241Z,96190.88
2022-10-01T18:11:24.217Z,96194.16
2022-10-01T18:13:53.149Z,96191.50
2022-10-01T18:16:22.697Z,96197.44
2022-10-01T18:21:45.005Z,96205.88
2022-10-01T18:24:15.865Z,96199.72
2022-10-01T18:26:45.602Z,96204.03
2022-10-01T18:29:19.383Z,96197.91
2022-10-01T18:31:53.137Z,96209.38
2022-10-01T18:34:27.509Z,96206.72
2022-10-01T18:37:00.719Z,96205.88
2022-10-01T18:39:39.185Z,96203.22
2022-10-01T18:42:16.176Z,96209.38
2022-10-01T18:44:46.961Z,96217.97
2022-10-01T18:47:24.011Z,96211.03
2022-10-01T18:50:29.522Z,96221.66
2022-10-01T18:53:12.821Z,96217.66
2022-10-01T18:56:14.205Z,96212.34
2022-10-01T18:59:06.639Z,96226.47
2022-10-01T19:01:48.893Z,96225.44
2022-10-01T19:04:44.031Z,96229.13
2022-10-01T19:07:30.101Z,96227.28
2022-10-01T19:10:07.781Z,96228.97
2022-10-01T19:12:52.540Z,96233.28
2022-10-01T19:15:34.654Z,96241.41
2022-10-01T19:18:29.417Z,96238.75
2022-10-01T19:21:08.971Z,96254.03
2022-10-01T19:24:15.260Z,96260.56
2022-10-01T19:26:47.823Z,96248.91
2022-10-01T19:29:32.977Z,96250.75
2022-10-01T19:32:03.940Z,96272.66
2022-10-01T19:34:38.351Z,96268.16
2022-10-01T19:37:12.387Z,96273.47
2022-10-01T19:39:43.658Z,96282.47
2022-10-01T19:42:19.013Z,96275.69
2022-10-01T19:44:58.631Z,96285.47
2022-10-01T19:47:37.764Z,96287.31
2022-10-01T19:50:19.488Z,96298.13
2022-10-01T19:52:51.527Z,96293.84
2022-10-01T19:55:23.978Z,96300.16
2022-10-01T19:57:52.981Z,96302.16
2022-10-01T20:00:24.763Z,96305.22
2022-10-01T20:03:03.998Z,96303.38
2022-10-01T20:05:38.822Z,96309.31
2022-10-01T20:08:17.887Z,96319.94
2022-10-01T20:10:54.331Z,96333.22
2022-10-01T20:13:43.924Z,96335.88
2022-10-01T20:16:22.432Z,96334.03
2022-10-01T20:18:58.858Z,96347.34
2022-10-01T20:21:36.984Z,96346.34
2022-10-01T20:24:16.577Z,96352.28
2022-10-01T20:26:48.802Z,96360.06
2022-10-01T20:29:33.585Z,96363.56
2022-10-01T20:32:10.425Z,96365.19
2022-10-01T20:34:50.287Z,96369.31
2022-10-01T20:37:35.121Z,96363.63
2022-10-01T20:40:10.497Z,96363.13
2022-10-01T20:42:46.645Z,96359.25
2022-10-01T20:45:21.141Z,96367.88
2022-10-01T20:47:55.027Z,96369.31
2022-10-01T20:50:28.072Z,96380.59
2022-10-01T20:53:05.955Z,96383.06
2022-10-01T20:55:40.637Z,96383.88
2022-10-01T20:58:15.105Z,96391.69
2022-10-01T21:00:46.466Z,96397.81
2022-10-01T21:03:26.624Z,96393.97
2022-10-01T21:05:59.357Z,96401.78
2022-10-01T21:08:39.559Z,96409.34
2022-10-01T21:11:14.448Z,96410.81
2022-10-01T21:13:50.142Z,96415.31
2022-10-01T21:16:56.343Z,96427.59
2022-10-01T21:19:47.624Z,96431.06
2022-10-01T21:22:30.969Z,96434.56
2022-10-01T21:25:11.656Z,96442.19
2022-10-01T21:28:00.113Z,96446.47
2022-10-01T21:30:41.589Z,96436.47
2022-10-01T21:33:16.921Z,96448.75
2022-10-01T21:35:55.009Z,96444.09
2022-10-01T21:38:31.701Z,96458.00
2022-10-01T21:41:16.148Z,96456.16
2022-10-01T21:43:57.578Z,96453.34
2022-10-01T21:46:30.551Z,96458.13
2022-10-01T21:49:09.657Z,96459.56
2022-10-01T21:51:55.348Z,96465.53
2022-10-01T21:54:54.026Z,96468.63
2022-10-01T21:57:38.321Z,96476.44
2022-10-01T22:00:18.464Z,96497.34
2022-10-01T22:02:57.606Z,96507.97
2022-10-01T22:05:35.835Z,96504.84
2022-10-01T22:08:19.379Z,96510.44
2022-10-01T22:10:51.384Z,96536.31
2022-10-01T22:13:23.637Z,96516.97
2022-10-01T22:15:54.741Z,96530.34
2022-10-01T22:18:33.207Z,96525.94
2022-10-01T22:21:06.297Z,96538.13
2022-10-01T22:23:39.088Z,96536.84
2022-10-01T22:26:11.997Z,96554.31
2022-10-01T22:28:42.239Z,96551.19
2022-10-01T22:31:15.537Z,96548.25
2022-10-01T22:33:50.090Z,96532.00
2022-10-01T22:36:26.478Z,96544.66
2022-10-01T22:39:01.065Z,96549.50
2022-10-01T22:41:34.130Z,96550.69
2022-10-01T22:44:07.606Z,96545.56
2022-10-01T22:47:08.996Z,96555.34
2022-10-01T22:49:50.488Z,96550.88
2022-10-01T22:52:28.358Z,96559.47
2022-10-01T22:55:14.469Z,96568.09
2022-10-01T22:58:14.439Z,96567.91
2022-10-01T23:00:51.363Z,96568.09
2022-10-01T23:03:33.548Z,96576.88
2022-10-01T23:06:07.022Z,96590.81
2022-10-01T23:08:45.183Z,96598.78
2022-10-01T23:11:23.388Z,96584.34
2022-10-01T23:14:00.006Z,96597.44
2022-10-01T23:16:37.975Z,96600.75
2022-10-01T23:19:25.482Z,96595.44
2022-10-01T23:21:59.827Z,96598.72
2022-10-01T23:24:40.951Z,96596.91
2022-10-01T23:27:24.081Z,96600.38
2022-10-01T23:30:09.140Z,96596.91
2022-10-01T23:33:04.468Z,96594.06
2022-10-01T23:35:43.704Z,96596.06
2022-10-01T23:38:37.516Z,96603.19
2022-10-01T23:41:16.150Z,96599.72
2022-10-01T23:43:49.469Z,96594.25
2022-10-01T23:46:22.868Z,96603.03
2022-10-01T23:48:57.506Z,96597.72
2022-10-01T23:51:29.571Z,96602.84
2022-10-01T23:54:03.776Z,96616.97
2022-10-01T23:56:50.347Z,96617.59
2022-10-01T23:59:28.031Z,96617.59
